Ionia, MI

9:31 PM EST on December 03, 2016 (GMT -0500)
Ionia | | Change Station

Elev 817 ft 42.94 °N, 85.06 °W | Updated 18 minutes ago

Overcast
Overcast
35 °F
Feels Like 35 °F
N
0
Wind Variable Wind from North

Today
High -- | Low -- °F
--% Chance of Precip.
Yesterday
High -- | Low -- °F
Precip. -- in
Pressure 30.27 in
Visibility 10.0 miles
Clouds Overcast 2500 ft
Dew Point 26 °F
Humidity 70%
Rainfall 0.00 in
Snow Depth Not available.
7:54 AM 5:06 PM
Waxing Crescent, 19% visible
METAR KY70 040213Z AUTO 00000KT 10SM OVC025 02/M03 A3027 RMK AO2 T00151034
Pressure 30.27 in
Visibility 10.0 miles
Clouds Overcast 2500 ft
Dew Point 26 °F
Humidity 70%
Rainfall 0.00 in
Snow Depth Not available.
7:54 AM 5:06 PM
Waxing Crescent, 19% visible
METAR KY70 040213Z AUTO 00000KT 10SM OVC025 02/M03 A3027 RMK AO2 T00151034

10-Day Weather Forecast

Almanac

Astronomy

Dec. 03, 2016 Rise Set
Actual Time
Civil Twilight
Nautical Twilight
Astronomical Twilight
Moon
Length of Visible Light
Length of Day
Tomorrow will be .
, % of the Moon is Illuminated

Today's Extremes

State Highs State Lows

Community

WunderPhotos

Upload Photos

1,955,560 photos uploaded!

WunderBlog® & News

Nearby

Air Quality

  Air Quality AQ Index Pollutant
Not available.

Snow Depth

Station Depth Elevation

Earthquake Activity

City Distance Mag. Time & Date
Minimum magnitude displayed is 2.5.

Coastal Water Temperatures

Place Temperature

Stations

Nearby Weather Stations

Station Location Temp. Windchill Dew Point Humidity Wind Precip. Elev Updated Type
                   

Watches & Warnings

There are currently no watches in effect.